Time;durP1;ratioP1;P1;durP2;ratioP2;P2;SDS_P1;SDS_P2;PMS_P1;PMS_P2;Temp;Humidity;BMP_temperature;BMP_pressure;BME280_temperature;BME280_humidity;BME280_pressure;Samples;Min_cycle;Max_cycle;Signal;HPM_P1;HPM_P2
2022/05/27 00:01:30;;;;;;;19.20;4.53;;;;;;;;;;4952229;28;20200;-75
2022/05/27 00:04:01;;;;;;;15.10;2.10;;;14.30;99.90;;;;;;4971814;28;20033;-76
2022/05/27 00:06:28;;;;;;;13.15;2.83;;;;;;;;;;4953631;28;20034;-76
2022/05/27 00:08:54;;;;;;;17.73;2.72;;;;;;;;;;4969670;28;20027;-76
2022/05/27 00:11:22;;;;;;;13.75;2.53;;;;;;;;;;4972232;28;20130;-76
2022/05/27 00:13:48;;;;;;;13.80;2.85;;;;;;;;;;4972748;28;20062;-76
2022/05/27 00:16:14;;;;;;;12.20;2.60;;;;;;;;;;4971610;28;20027;-76
2022/05/27 00:18:41;;;;;;;11.50;3.20;;;;;;;;;;4970311;28;20033;-76
2022/05/27 00:21:07;;;;;;;15.40;3.55;;;;;;;;;;4947787;29;20109;-76
2022/05/27 00:23:33;;;;;;;16.70;2.65;;;;;;;;;;4968788;28;20423;-76
2022/05/27 00:25:59;;;;;;;20.30;3.20;;;;;;;;;;4955840;28;20042;-76
2022/05/27 00:28:26;;;;;;;19.52;4.13;;;;;;;;;;4952522;28;20031;-76
2022/05/27 00:30:53;;;;;;;10.48;2.22;;;;;;;;;;4968595;28;20117;-76
2022/05/27 00:33:19;;;;;;;17.40;2.88;;;;;;;;;;4973406;28;20030;-76
2022/05/27 00:35:45;;;;;;;15.10;2.70;;;;;;;;;;4972369;28;20487;-76
2022/05/27 00:38:12;;;;;;;24.67;3.83;;;;;;;;;;4958456;28;20027;-76
2022/05/27 00:40:42;;;;;;;24.50;3.17;;;;;;;;;;4967987;28;20113;-76
2022/05/27 00:43:08;;;;;;;18.80;2.78;;;;;;;;;;4971038;28;20031;-76
2022/05/27 00:45:36;;;;;;;13.77;3.65;;;;;;;;;;4976955;28;20030;-76
2022/05/27 00:48:04;;;;;;;16.60;3.20;;;;;;;;;;4956135;28;20034;-76
2022/05/27 00:50:32;;;;;;;26.23;4.05;;;;;;;;;;4951838;28;20089;-76
2022/05/27 00:52:59;;;;;;;20.83;3.03;;;;;;;;;;4967964;28;20131;-76
2022/05/27 00:55:30;;;;;;;12.00;2.17;;;;;;;;;;4972428;28;20035;-76
2022/05/27 00:58:08;;;;;;;18.25;2.72;;;;;;;;;;4948733;28;20039;-76
2022/05/27 01:00:34;;;;;;;18.75;3.38;;;;;;;;;;4970125;28;20042;-76
2022/05/27 01:03:01;;;;;;;18.05;3.42;;;13.60;99.90;;;;;;4941517;28;20471;-76
2022/05/27 01:05:27;;;;;;;20.35;3.00;;;;;;;;;;4966562;28;20467;-76
2022/05/27 01:07:57;;;;;;;15.85;2.67;;;;;;;;;;4962954;28;20113;-76
2022/05/27 01:10:24;;;;;;;20.40;3.13;;;;;;;;;;4970212;28;20170;-76
2022/05/27 01:13:00;;;;;;;17.45;3.15;;;;;;;;;;4969982;28;20144;-76
2022/05/27 01:15:29;;;;;;;14.57;3.20;;;;;;;;;;4970365;28;20023;-76
2022/05/27 01:18:04;;;;;;;17.67;3.45;;;;;;;;;;4973549;28;20466;-76
2022/05/27 01:20:33;;;;;;;14.00;2.53;;;;;;;;;;4968231;28;20479;-77
2022/05/27 01:22:59;;;;;;;28.38;3.90;;;;;;;;;;4975785;28;20050;-76
2022/05/27 01:25:25;;;;;;;27.10;3.25;;;;;;;;;;4974052;28;20035;-76
2022/05/27 01:28:07;;;;;;;24.13;3.90;;;;;;;;;;4972949;28;20065;-76
2022/05/27 01:30:48;;;;;;;19.80;3.85;;;;;;;;;;4974432;28;20494;-76
2022/05/27 01:33:14;;;;;;;26.52;4.28;;;;;;;;;;4966416;28;20704;-76
2022/05/27 01:36:16;;;;;;;13.48;2.72;;;13.10;99.90;;;;;;4975578;28;20466;-76
2022/05/27 01:38:52;;;;;;;16.13;2.72;;;;;;;;;;4959051;28;20047;-76
2022/05/27 01:41:21;;;;;;;22.70;4.07;;;;;;;;;;4947396;29;20130;-76
2022/05/27 01:43:51;;;;;;;18.58;3.50;;;;;;;;;;4968360;28;20072;-76
2022/05/27 01:46:25;;;;;;;15.82;3.03;;;12.90;99.90;;;;;;4971191;28;20438;-76
2022/05/27 01:48:57;;;;;;;18.80;4.32;;;;;;;;;;4954561;28;20025;-76
2022/05/27 01:51:27;;;;;;;17.60;3.95;;;;;;;;;;4976050;28;20074;-76
2022/05/27 01:54:05;;;;;;;22.38;3.03;;;;;;;;;;4976032;28;20030;-76
2022/05/27 01:56:51;;;;;;;15.95;3.67;;;;;;;;;;4972823;28;20039;-76
2022/05/27 01:59:37;;;;;;;18.73;2.85;;;;;;;;;;4937715;28;20469;-76
2022/05/27 02:02:15;;;;;;;28.60;3.17;;;13.30;99.90;;;;;;4974519;28;20038;-76
2022/05/27 02:04:44;;;;;;;11.38;2.55;;;;;;;;;;4974253;28;20050;-76
2022/05/27 02:07:34;;;;;;;14.15;3.08;;;;;;;;;;4970137;28;20031;-76
2022/05/27 02:10:16;;;;;;;17.70;3.53;;;13.10;99.90;;;;;;4952135;28;20055;-76
2022/05/27 02:12:45;;;;;;;;;;;13.20;99.90;;;;;;4940443;29;20534;-76
2022/05/27 02:15:14;;;;;;;17.05;2.63;;;;;;;;;;4974843;28;19964;-76
2022/05/27 02:17:52;;;;;;;22.83;3.20;;;;;;;;;;4972606;28;20031;-76
2022/05/27 02:20:23;;;;;;;19.05;2.95;;;;;;;;;;4973407;28;20031;-76
2022/05/27 02:22:51;;;;;;;14.25;3.15;;;;;;;;;;4977315;28;20038;-76
2022/05/27 02:25:20;;;;;;;12.90;3.20;;;;;;;;;;4974335;28;20050;-78
2022/05/27 02:27:51;;;;;;;23.13;4.30;;;;;;;;;;4955967;28;20031;-76
2022/05/27 02:30:19;;;;;;;13.43;3.03;;;;;;;;;;4965343;28;20038;-76
2022/05/27 02:32:48;;;;;;;17.33;3.53;;;;;;;;;;4957677;28;20382;-76
2022/05/27 02:35:26;;;;;;;14.90;3.25;;;;;;;;;;4971798;28;21741;-77
2022/05/27 02:37:53;;;;;;;12.52;2.90;;;;;;;;;;4973981;28;20090;-76
2022/05/27 02:40:37;;;;;;;15.27;3.22;;;;;;;;;;4973580;28;20027;-76
2022/05/27 02:43:02;;;;;;;20.17;3.30;;;;;;;;;;4981048;28;20488;-76
2022/05/27 02:45:28;;;;;;;13.07;2.90;;;;;;;;;;4971555;28;20027;-77
2022/05/27 02:48:07;;;;;;;17.05;3.15;;;;;;;;;;4964957;28;20034;-77
2022/05/27 02:50:51;;;;;;;18.98;2.22;;;;;;;;;;4969710;28;20043;-77
2022/05/27 02:53:26;;;;;;;11.40;2.63;;;;;;;;;;4962209;28;20059;-76
2022/05/27 02:56:01;;;;;;;14.65;2.70;;;;;;;;;;4973627;28;20035;-76
2022/05/27 02:58:29;;;;;;;12.55;2.78;;;;;;;;;;4973233;28;20034;-76
2022/05/27 03:00:55;;;;;;;20.60;2.97;;;;;;;;;;4971604;28;20038;-77
2022/05/27 03:03:21;;;;;;;26.30;3.05;;;;;;;;;;4972379;28;20042;-77
2022/05/27 03:06:05;;;;;;;18.88;2.80;;;;;;;;;;4973052;28;20093;-76
2022/05/27 03:08:38;;;;;;;14.32;3.95;;;;;;;;;;4967654;28;20062;-76
2022/05/27 03:11:14;;;;;;;12.73;3.10;;;;;;;;;;4971144;28;20046;-76
2022/05/27 03:13:50;;;;;;;23.92;2.92;;;;;;;;;;4953891;29;20558;-76
2022/05/27 03:16:25;;;;;;;12.95;3.20;;;;;;;;;;4969326;28;20027;-76
2022/05/27 03:18:54;;;;;;;10.13;2.45;;;;;;;;;;4972605;28;20034;-76
2022/05/27 03:21:32;;;;;;;17.45;4.30;;;;;;;;;;4973098;28;20039;-76
2022/05/27 03:24:02;;;;;;;21.70;3.53;;;;;;;;;;4972200;28;20022;-76
2022/05/27 03:26:28;;;;;;;20.38;2.92;;;;;;;;;;4942476;28;20027;-76
2022/05/27 03:28:54;;;;;;;20.90;3.83;;;;;;;;;;4962792;28;20062;-76
2022/05/27 03:31:36;;;;;;;16.23;3.47;;;;;;;;;;4966162;28;20080;-75
2022/05/27 03:34:17;;;;;;;26.15;4.50;;;;;;;;;;4972033;28;20382;-78
2022/05/27 03:36:43;;;;;;;15.38;3.50;;;;;;;;;;4972906;28;20065;-75
2022/05/27 03:39:12;;;;;;;25.25;4.70;;;;;;;;;;4968544;28;20039;-76
2022/05/27 03:41:59;;;;;;;22.35;3.25;;;;;;;;;;4963061;28;20022;-75
2022/05/27 03:44:27;;;;;;;14.25;2.78;;;;;;;;;;4970201;28;20066;-73
2022/05/27 03:46:54;;;;;;;19.65;3.38;;;;;;;;;;4968675;28;20042;-74
2022/05/27 03:49:19;;;;;;;16.05;3.03;;;;;;;;;;4964520;28;20024;-75
2022/05/27 03:51:55;;;;;;;19.00;3.38;;;;;;;;;;4969157;28;20094;-73
2022/05/27 03:54:21;;;;;;;16.60;3.08;;;;;;;;;;4970455;28;20030;-75
2022/05/27 03:56:48;;;;;;;17.60;2.97;;;;;;;;;;4971613;28;20063;-75
2022/05/27 03:59:15;;;;;;;19.35;2.75;;;;;;;;;;4968990;28;20517;-76
2022/05/27 04:01:49;;;;;;;19.00;2.75;;;;;;;;;;5098949;27;20436;-77
2022/05/27 04:04:17;;;;;;;19.45;2.50;;;;;;;;;;5121247;28;20032;-77
2022/05/27 04:06:43;;;;;;;16.92;3.50;;;;;;;;;;5093802;28;20373;-76
2022/05/27 04:09:09;;;;;;;22.42;3.10;;;;;;;;;;5099905;28;20064;-76
2022/05/27 04:11:35;;;;;;;15.82;3.15;;;;;;;;;;5085767;28;20032;-77
2022/05/27 04:14:02;;;;;;;17.48;3.10;;;;;;;;;;5073594;28;20025;-76
2022/05/27 04:16:28;;;;;;;13.48;2.78;;;;;;;;;;5094313;28;20036;-77
2022/05/27 04:18:54;;;;;;;17.95;3.70;;;;;;;;;;5089242;28;20086;-76
2022/05/27 04:21:20;;;;;;;14.00;2.63;;;;;;;;;;5090218;28;20059;-77
2022/05/27 04:23:46;;;;;;;19.70;2.97;;;;;;;;;;5099344;28;20040;-76
2022/05/27 04:26:12;;;;;;;13.75;2.47;;;;;;;;;;5088712;28;20028;-78
2022/05/27 04:28:38;;;;;;;18.98;2.55;;;;;;;;;;5091505;28;20070;-76
2022/05/27 04:31:05;;;;;;;9.90;2.50;;;;;;;;;;5082522;28;20033;-77
2022/05/27 04:33:31;;;;;;;9.40;2.17;;;;;;;;;;5093830;28;20088;-77
2022/05/27 04:36:00;;;;;;;15.15;3.10;;;;;;;;;;5089566;28;20032;-77
2022/05/27 04:38:27;;;;;;;13.02;2.20;;;;;;;;;;5086338;28;20033;-77
2022/05/27 04:40:53;;;;;;;14.20;3.85;;;;;;;;;;5087236;28;20039;-77
2022/05/27 04:43:19;;;;;;;17.27;3.30;;;;;;;;;;5084758;28;20033;-77
2022/05/27 04:45:45;;;;;;;19.92;2.53;;;;;;;;;;5087200;28;20082;-77
2022/05/27 04:48:12;;;;;;;12.85;2.97;;;;;;;;;;5088599;28;20020;-77
2022/05/27 04:50:38;;;;;;;13.90;2.00;;;;;;;;;;5085010;28;20036;-77
2022/05/27 04:53:05;;;;;;;13.30;3.22;;;;;;;;;;5094907;28;20077;-76
2022/05/27 04:55:32;;;;;;;17.55;2.40;;;;;;;;;;5086276;28;20464;-76
2022/05/27 04:57:59;;;;;;;12.48;2.50;;;;;;;;;;5085933;28;20028;-76
2022/05/27 05:00:30;;;;;;;14.85;2.58;;;;;;;;;;5087859;28;20044;-77
2022/05/27 05:02:56;;;;;;;16.02;2.55;;;;;;;;;;5083475;28;20058;-77
2022/05/27 05:05:23;;;;;;;12.85;2.10;;;;;;;;;;5087217;28;20056;-77
2022/05/27 05:07:52;;;;;;;12.85;2.63;;;;;;;;;;5086217;28;20412;-77
2022/05/27 05:10:19;;;;;;;14.77;2.85;;;;;;;;;;5082406;28;20546;-76
2022/05/27 05:12:45;;;;;;;15.30;2.70;;;;;;;;;;5078991;28;20024;-77
2022/05/27 05:15:12;;;;;;;14.30;2.95;;;;;;;;;;5086733;28;20392;-77
2022/05/27 05:17:38;;;;;;;18.52;3.85;;;;;;;;;;5074230;28;20033;-77
2022/05/27 05:20:05;;;;;;;15.70;2.17;;;;;;;;;;5070378;28;20055;-77
2022/05/27 05:22:31;;;;;;;22.33;2.47;;;;;;;;;;5078578;28;20054;-77
2022/05/27 05:24:57;;;;;;;12.88;2.78;;;;;;;;;;5080683;28;20055;-77
2022/05/27 05:27:29;;;;;;;13.38;2.92;;;;;;;;;;5072595;28;20500;-77
2022/05/27 05:29:56;;;;;;;16.63;2.50;;;;;;;;;;5080505;28;20055;-77
2022/05/27 05:32:22;;;;;;;15.73;3.83;;;;;;;;;;5075391;28;20031;-77
2022/05/27 05:34:51;;;;;;;20.48;3.42;;;;;;;;;;5093891;28;20369;-78
2022/05/27 05:37:17;;;;;;;16.30;2.60;;;;;;;;;;5078241;28;20060;-78
2022/05/27 05:39:44;;;;;;;16.95;3.60;;;;;;;;;;5069118;28;20036;-77
2022/05/27 05:42:10;;;;;;;14.57;2.78;;;;;;;;;;5068996;28;20040;-76
2022/05/27 05:44:36;;;;;;;20.30;2.70;;;;;;;;;;5085180;28;20115;-73
2022/05/27 05:47:03;;;;;;;15.30;3.58;;;;;;;;;;5065487;28;20037;-74
2022/05/27 05:49:29;;;;;;;16.48;2.78;;;;;;;;;;5068012;28;20171;-73
2022/05/27 05:51:57;;;;;;;12.82;2.95;;;;;;;;;;5073772;28;20029;-73
2022/05/27 05:54:24;;;;;;;15.10;2.85;;;;;;;;;;5081785;28;20043;-73
2022/05/27 05:56:50;;;;;;;17.50;3.97;;;;;;;;;;5072373;28;20047;-72
2022/05/27 05:59:17;;;;;;;14.40;2.67;;;;;;;;;;5067634;28;20468;-72
2022/05/27 06:01:43;;;;;;;17.23;3.53;;;;;;;;;;5068021;28;20087;-71
2022/05/27 06:04:10;;;;;;;22.80;4.55;;;;;;;;;;5076446;28;20543;-73
2022/05/27 06:06:36;;;;;;;30.50;11.05;;;;;;;;;;5082540;28;20100;-74
2022/05/27 06:09:03;;;;;;;16.92;2.97;;;;;;;;;;5073748;28;20090;-72
2022/05/27 06:11:29;;;;;;;21.20;3.97;;;;;;;;;;5073961;28;20036;-76
2022/05/27 06:13:55;;;;;;;14.55;2.53;;;;;;;;;;5070778;28;20033;-73
2022/05/27 06:16:21;;;;;;;18.63;4.13;;;;;;;;;;5078798;28;20032;-73
2022/05/27 06:18:47;;;;;;;18.88;3.67;;;;;;;;;;5064379;28;20087;-73
2022/05/27 06:21:13;;;;;;;16.75;3.10;;;;;;;;;;5076731;28;20041;-73
2022/05/27 06:23:40;;;;;;;18.63;3.53;;;;;;;;;;5071789;28;20434;-74
2022/05/27 06:26:10;;;;;;;17.15;3.40;;;;;;;;;;5074778;28;20028;-73
2022/05/27 06:34:24;;;;;;;15.50;3.05;;;;;;;;;;5064477;28;20056;-73
2022/05/27 06:36:53;;;;;;;42.53;21.03;;;;;;;;;;5072779;28;20063;-73
2022/05/27 06:39:20;;;;;;;22.33;2.63;;;;;;;;;;5068743;28;20333;-73
2022/05/27 06:41:46;;;;;;;13.00;2.65;;;;;;;;;;5071089;28;20041;-73
2022/05/27 06:44:12;;;;;;;17.63;2.63;;;;;;;;;;5068448;28;20089;-72
2022/05/27 06:46:38;;;;;;;11.45;2.70;;;;;;;;;;5070502;28;20391;-72
2022/05/27 06:49:07;;;;;;;19.70;2.92;;;;;;;;;;5076946;28;20062;-72
2022/05/27 06:51:37;;;;;;;12.98;3.17;;;;;;;;;;5067723;28;20044;-71
2022/05/27 06:54:05;;;;;;;14.35;2.55;;;;;;;;;;5073529;28;20054;-73
2022/05/27 06:56:31;;;;;;;15.23;2.80;;;;;;;;;;5075451;28;20052;-72
2022/05/27 06:58:57;;;;;;;13.95;2.50;;;;;;;;;;5089041;28;20024;-71
2022/05/27 07:01:23;;;;;;;13.60;3.03;;;;;;;;;;5074124;28;20098;-72
2022/05/27 07:03:49;;;;;;;11.30;2.47;;;;;;;;;;5081829;28;20090;-72
2022/05/27 07:06:15;;;;;;;26.15;7.88;;;;;;;;;;5065309;28;20430;-74
2022/05/27 07:08:41;;;;;;;21.27;3.72;;;;;;;;;;5071099;28;20052;-73
2022/05/27 07:11:07;;;;;;;11.38;2.97;;;;;;;;;;5077938;28;20040;-73
2022/05/27 07:13:34;;;;;;;12.43;3.05;;;;;;;;;;5070204;28;20074;-73
2022/05/27 07:16:00;;;;;;;16.20;3.17;;;;;;;;;;5070226;28;20029;-73
2022/05/27 07:18:26;;;;;;;12.30;2.70;;;;;;;;;;5069492;28;20032;-74
2022/05/27 07:21:02;;;;;;;14.05;2.80;;;19.60;99.90;;;;;;5081579;28;20055;-73
2022/05/27 07:23:28;;;;;;;12.85;2.55;;;;;;;;;;5072658;28;20048;-74
2022/05/27 07:25:54;;;;;;;24.45;11.60;;;;;;;;;;5073697;28;20480;-75
2022/05/27 07:28:21;;;;;;;19.80;2.92;;;;;;;;;;5069691;28;20036;-74
2022/05/27 07:30:47;;;;;;;12.15;2.55;;;;;;;;;;5071286;28;20051;-74
2022/05/27 07:33:13;;;;;;;10.57;2.33;;;;;;;;;;5084195;28;20033;-77
2022/05/27 07:35:39;;;;;;;11.18;3.28;;;;;;;;;;5065266;28;20032;-77
2022/05/27 07:38:07;;;;;;;19.60;3.38;;;;;;;;;;5071521;28;20044;-77
2022/05/27 07:40:33;;;;;;;10.63;2.47;;;;;;;;;;5069174;28;20088;-77
2022/05/27 07:42:59;;;;;;;9.95;3.05;;;;;;;;;;5085991;28;20108;-78
2022/05/27 07:45:29;;;;;;;16.05;2.35;;;;;;;;;;5073734;28;20479;-77
2022/05/27 07:47:56;;;;;;;17.40;2.70;;;;;;;;;;5074279;28;20147;-77
2022/05/27 07:50:22;;;;;;;13.57;3.00;;;;;;;;;;5071497;28;20448;-77
2022/05/27 07:52:49;;;;;;;13.50;2.97;;;;;;;;;;5070218;28;20028;-77
2022/05/27 07:55:15;;;;;;;10.30;2.15;;;;;;;;;;5077350;28;20150;-74
2022/05/27 07:57:44;;;;;;;12.40;2.70;;;;;;;;;;5070363;28;20037;-74
2022/05/27 08:00:12;;;;;;;12.60;2.83;;;;;;;;;;5069181;28;20060;-74
2022/05/27 08:02:38;;;;;;;15.63;2.92;;;;;;;;;;5070690;28;20055;-74
2022/05/27 08:05:05;;;;;;;16.40;4.07;;;;;;;;;;5075809;28;20036;-74
2022/05/27 08:07:31;;;;;;;17.52;3.08;;;;;;;;;;5075099;28;20031;-74
2022/05/27 08:09:57;;;;;;;16.77;2.95;;;;;;;;;;5077995;28;20108;-74
2022/05/27 08:12:23;;;;;;;18.17;3.42;;;;;;;;;;5079566;28;20028;-75
2022/05/27 08:14:48;;;;;;;13.05;2.67;;;21.30;99.90;;;;;;5066324;28;20036;-74
2022/05/27 08:17:14;;;;;;;10.25;3.05;;;;;;;;;;5075739;28;20340;-75
2022/05/27 08:19:40;;;;;;;15.90;2.83;;;;;;;;;;5064362;28;20036;-75
2022/05/27 08:22:07;;;;;;;12.18;3.30;;;;;;;;;;5074153;28;20029;-75
2022/05/27 08:24:33;;;;;;;10.02;2.53;;;;;;;;;;5070656;28;20028;-75
2022/05/27 08:26:59;;;;;;;15.05;2.95;;;;;;;;;;5070425;28;20035;-75
2022/05/27 08:29:25;;;;;;;9.35;2.35;;;;;;;;;;5059947;28;20079;-75
2022/05/27 08:31:51;;;;;;;11.43;2.85;;;;;;;;;;5068724;28;20039;-78
2022/05/27 08:39:47;;;;;;;13.88;2.25;;;;;;;;;;5070722;28;20105;-75
2022/05/27 08:42:20;;;;;;;8.30;2.03;;;;;;;;;;5068331;28;20484;-74
2022/05/27 08:44:46;;;;;;;11.43;2.42;;;;;;;;;;5062424;28;20126;-75
2022/05/27 08:47:12;;;;;;;42.95;8.00;;;;;;;;;;5075121;28;20034;-74
2022/05/27 08:49:41;;;;;;;16.25;5.95;;;;;;;;;;5074901;28;20085;-73
2022/05/27 08:52:19;;;;;;;9.30;2.90;;;;;;;;;;5055508;28;20052;-77
2022/05/27 08:54:51;;;;;;;13.93;3.05;;;;;;;;;;5063756;28;20033;-77
2022/05/27 09:00:14;;;;;;;12.27;2.50;;;;;;;;;;5073263;28;20067;-76
2022/05/27 09:02:40;;;;;;;15.00;2.78;;;;;;;;;;5064537;28;20449;-76
2022/05/27 09:05:16;;;;;;;12.80;2.53;;;;;;;;;;5073149;28;20381;-76
2022/05/27 09:07:42;;;;;;;13.07;2.80;;;;;;;;;;5073147;28;20029;-76
2022/05/27 09:10:14;;;;;;;9.13;2.40;;;;;;;;;;5069259;28;20185;-76
2022/05/27 09:12:46;;;;;;;12.90;2.63;;;;;;;;;;5073425;28;20108;-77
2022/05/27 09:15:14;;;;;;;;;;;19.50;96.60;;;;;;5068984;28;20041;-77
2022/05/27 09:17:48;;;;;;;11.10;2.30;;;;;;;;;;5072745;28;20360;-76
2022/05/27 09:20:21;;;;;;;14.00;2.65;;;20.00;93.60;;;;;;5071788;28;20226;-76
2022/05/27 09:23:06;;;;;;;16.85;2.65;;;;;;;;;;5070353;28;20032;-77
2022/05/27 09:25:31;;;;;;;12.55;2.30;;;;;;;;;;5065333;28;20067;-77
2022/05/27 09:28:03;;;;;;;14.35;3.13;;;;;;;;;;5058855;28;20024;-77
2022/05/27 09:30:31;;;;;;;10.88;2.60;;;;;;;;;;5072099;28;20169;-75
2022/05/27 09:32:59;;;;;;;11.30;2.70;;;;;;;;;;5069425;28;20085;-76
2022/05/27 09:35:44;;;;;;;13.90;2.85;;;;;;;;;;5088193;28;20040;-75
2022/05/27 09:38:21;;;;;;;9.77;2.70;;;;;;;;;;5064483;28;20476;-75
2022/05/27 09:40:50;;;;;;;12.38;2.83;;;;;;;;;;5082444;28;20498;-75
2022/05/27 09:43:36;;;;;;;20.33;2.72;;;;;;;;;;5078035;28;20073;-74
2022/05/27 09:46:04;;;;;;;12.88;2.53;;;;;;;;;;5075685;28;20116;-74
2022/05/27 09:48:30;;;;;;;13.80;3.22;;;;;;;;;;5067441;28;20029;-75
2022/05/27 09:50:57;;;;;;;9.40;2.15;;;;;;;;;;5086762;28;20090;-75
2022/05/27 09:53:27;;;;;;;12.50;2.78;;;;;;;;;;5068904;28;20021;-75
2022/05/27 09:55:59;;;;;;;11.80;2.47;;;21.40;91.00;;;;;;5070318;28;20024;-74
2022/05/27 09:58:27;;;;;;;8.07;2.05;;;;;;;;;;5079026;28;20021;-75
2022/05/27 10:00:53;;;;;;;16.13;2.38;;;;;;;;;;5069047;28;20064;-76
2022/05/27 10:03:29;;;;;;;15.02;2.58;;;21.00;91.80;;;;;;5071511;28;20103;-75
2022/05/27 10:06:11;;;;;;;12.57;2.42;;;21.30;98.50;;;;;;5079994;28;20361;-76
2022/05/27 10:08:40;;;;;;;12.38;2.38;;;;;;;;;;5072392;28;20050;-76
2022/05/27 10:11:07;;;;;;;8.48;2.03;;;;;;;;;;5081653;28;20434;-76
2022/05/27 10:13:34;;;;;;;14.55;2.80;;;;;;;;;;5064092;28;20078;-76
2022/05/27 10:16:10;;;;;;;16.13;2.88;;;21.00;94.30;;;;;;5063206;28;20028;-76
2022/05/27 10:18:36;;;;;;;9.98;2.42;;;;;;;;;;5065059;28;20033;-76
2022/05/27 10:21:04;;;;;;;12.85;3.13;;;;;;;;;;5068787;28;20383;-76
2022/05/27 10:23:38;;;;;;;23.08;2.88;;;;;;;;;;5074678;28;20041;-76
2022/05/27 10:26:24;;;;;;;16.25;2.42;;;20.10;94.40;;;;;;5074177;28;20051;-76
2022/05/27 10:29:02;;;;;;;14.00;2.50;;;;;;;;;;5070675;28;20037;-76
2022/05/27 10:31:29;;;;;;;10.52;2.20;;;19.80;93.10;;;;;;5063925;28;20032;-76
2022/05/27 10:33:55;;;;;;;11.00;2.05;;;;;;;;;;5075833;28;20029;-76
2022/05/27 10:36:57;;;;;;;16.75;3.25;;;19.70;94.60;;;;;;5065550;28;20128;-77
2022/05/27 10:39:31;;;;;;;13.97;2.80;;;;;;;;;;5062534;28;20033;-75
2022/05/27 10:42:16;;;;;;;15.77;2.42;;;;;;;;;;5070903;28;20032;-75
2022/05/27 10:44:50;;;;;;;13.27;2.70;;;20.30;93.50;;;;;;5076155;28;20070;-75
2022/05/27 10:47:25;;;;;;;13.82;2.63;;;;;;;;;;5075520;28;20437;-76
2022/05/27 10:49:57;;;;;;;11.20;2.58;;;;;;;;;;5066588;28;20036;-76
2022/05/27 10:52:23;;;;;;;17.10;3.20;;;;;;;;;;5065261;28;20386;-74
2022/05/27 10:55:19;;;;;;;13.18;2.13;;;;;;;;;;5071583;28;20270;-78
2022/05/27 11:03:38;;;;;;;10.77;2.40;;;;;;;;;;5075163;28;20093;-76
2022/05/27 11:06:24;;;;;;;13.70;2.47;;;;;;;;;;5075279;28;20043;-76
2022/05/27 11:09:08;;;;;;;15.45;3.05;;;;;;;;;;5065053;28;20404;-77
2022/05/27 11:12:22;;;;;;;12.45;2.30;;;19.70;95.50;;;;;;5077905;28;20040;-76
2022/05/27 11:15:13;;;;;;;11.82;2.22;;;;;;;;;;5068438;28;20047;-75
2022/05/27 11:17:38;;;;;;;14.65;2.45;;;;;;;;;;5067000;28;20063;-76
2022/05/27 11:20:32;;;;;;;14.40;4.43;;;19.40;95.20;;;;;;5068599;28;20079;-75
2022/05/27 11:23:08;;;;;;;16.80;3.75;;;;;;;;;;5068744;28;20071;-74
2022/05/27 11:25:37;;;;;;;15.88;3.20;;;;;;;;;;5060740;28;20040;-73
2022/05/27 11:28:33;;;;;;;17.05;3.45;;;19.00;95.30;;;;;;5076232;28;20025;-74
2022/05/27 11:31:05;;;;;;;11.40;3.25;;;;;;;;;;5070569;28;20385;-73
2022/05/27 11:33:31;;;;;;;11.70;2.67;;;;;;;;;;5071352;28;20066;-74
2022/05/27 11:35:57;;;;;;;13.77;3.15;;;;;;;;;;5069275;28;20029;-73
2022/05/27 11:38:32;;;;;;;15.18;2.63;;;;;;;;;;5068597;28;20021;-73
2022/05/27 11:41:25;;;;;;;12.00;2.67;;;19.10;95.50;;;;;;5071263;28;20425;-73
2022/05/27 11:44:04;;;;;;;16.80;2.60;;;;;;;;;;5069872;28;20035;-73
2022/05/27 11:46:33;;;;;;;14.68;2.92;;;;;;;;;;5070336;28;20058;-74
2022/05/27 11:49:05;;;;;;;19.00;3.28;;;;;;;;;;5071168;28;20042;-73
2022/05/27 11:52:12;;;;;;;16.70;3.08;;;18.50;96.60;;;;;;5071080;28;20130;-73
2022/05/27 11:54:38;;;;;;;15.20;2.55;;;;;;;;;;5070913;28;20539;-73
2022/05/27 11:57:41;;;;;;;17.92;3.00;;;18.30;98.60;;;;;;5070009;28;20025;-73
2022/05/27 12:00:12;;;;;;;19.10;3.33;;;18.30;98.00;;;;;;5069528;28;20048;-73
2022/05/27 12:02:48;;;;;;;15.48;2.97;;;;;;;;;;5067447;28;20032;-73
2022/05/27 12:05:23;;;;;;;17.55;3.15;;;18.00;98.80;;;;;;5051415;28;20036;-73
2022/05/27 12:07:49;;;;;;;13.73;2.65;;;;;;;;;;5054180;28;20107;-73
2022/05/27 12:10:18;;;;;;;15.00;3.35;;;;;;;;;;5069619;28;20029;-73
2022/05/27 12:12:50;;;;;;;16.45;2.95;;;;;;;;;;5070330;28;20048;-73
2022/05/27 12:15:16;;;;;;;;;;;;;;;;;;5070487;28;20033;-73
2022/05/27 12:17:44;;;;;;;20.27;2.90;;;;;;;;;;5069775;28;19908;-73
2022/05/27 12:20:17;;;;;;;17.63;3.22;;;17.60;99.20;;;;;;5070830;28;20029;-73
2022/05/27 12:22:43;;;;;;;19.60;3.78;;;;;;;;;;5071791;28;20040;-73
2022/05/27 12:25:15;;;;;;;18.23;2.85;;;;;;;;;;5073638;28;20032;-73
2022/05/27 12:27:41;;;;;;;18.05;3.08;;;;;;;;;;5072922;28;20388;-73
2022/05/27 12:30:08;;;;;;;18.45;3.80;;;;;;;;;;5064075;28;20032;-73
2022/05/27 12:32:35;;;;;;;11.40;2.70;;;;;;;;;;5070526;28;20028;-73
2022/05/27 12:35:20;;;;;;;14.07;3.10;;;17.90;98.00;;;;;;5075028;28;20115;-73
2022/05/27 12:37:50;;;;;;;17.33;3.03;;;;;;;;;;5068713;28;20472;-73
2022/05/27 12:40:32;;;;;;;12.90;2.63;;;18.10;97.90;;;;;;5070605;28;20121;-73
2022/05/27 12:43:11;;;;;;;19.20;3.72;;;;;;;;;;5073044;28;20033;-73
2022/05/27 12:45:46;;;;;;;22.70;3.58;;;18.20;98.40;;;;;;5068671;28;20060;-73
2022/05/27 12:48:22;;;;;;;15.25;4.43;;;;;;;;;;5072155;28;20024;-73
2022/05/27 12:50:54;;;;;;;12.20;2.63;;;;;;;;;;5074440;28;20089;-73
2022/05/27 12:53:34;;;;;;;19.60;3.27;;;18.40;98.60;;;;;;5053238;28;20021;-73
2022/05/27 13:02:07;;;;;;;;;;;;;;;;;;5073014;28;20139;-72
2022/05/27 13:04:53;;;;;;;11.73;2.65;;;;;;;;;;5073799;28;19952;-72
2022/05/27 13:07:28;;;;;;;12.77;2.53;;;;;;;;;;5064196;28;20029;-72
2022/05/27 13:09:55;;;;;;;15.63;3.30;;;;;;;;;;5087155;28;20358;-73
2022/05/27 13:12:41;;;;;;;13.18;2.10;;;;;;;;;;5073215;28;20488;-73
2022/05/27 13:15:11;;;;;;;13.30;2.50;;;;;;;;;;5053783;28;20503;-73
2022/05/27 13:17:44;;;;;;;16.48;2.75;;;17.70;99.90;;;;;;5068604;28;20063;-73
2022/05/27 13:20:38;;;;;;;16.75;3.33;;;;;;;;;;5070870;28;20044;-72
2022/05/27 13:23:04;;;;;;;16.80;2.95;;;;;;;;;;5055012;28;20033;-73
2022/05/27 13:25:30;;;;;;;17.05;2.90;;;;;;;;;;5073049;28;20413;-73
2022/05/27 13:28:03;;;;;;;13.57;2.65;;;;;;;;;;5068267;28;20099;-74
2022/05/27 13:30:47;;;;;;;;;;;17.60;99.90;;;;;;5073410;28;20063;-74
2022/05/27 13:33:13;;;;;;;10.82;2.47;;;;;;;;;;5067544;28;20394;-75
2022/05/27 13:35:44;;;;;;;13.85;3.13;;;;;;;;;;5067159;28;20029;-75
2022/05/27 13:38:13;;;;;;;12.77;2.83;;;18.20;99.80;;;;;;5065365;28;20380;-75
2022/05/27 13:40:39;;;;;;;13.10;2.60;;;;;;;;;;5063944;28;20040;-75
2022/05/27 13:43:07;;;;;;;12.30;2.58;;;;;;;;;;5065563;28;20032;-74
2022/05/27 13:46:02;;;;;;;13.43;3.65;;;;;;;;;;5067063;28;20089;-74
2022/05/27 13:48:41;;;;;;;15.52;2.35;;;;;;;;;;5060834;28;20111;-76
2022/05/27 13:51:07;;;;;;;11.75;2.67;;;;;;;;;;5063701;28;23450;-75
2022/05/27 13:53:35;;;;;;;13.00;3.00;;;;;;;;;;5065502;28;20028;-75
2022/05/27 13:56:23;;;;;;;11.90;2.70;;;17.60;99.90;;;;;;5063578;28;20116;-74
2022/05/27 13:59:01;;;;;;;14.88;3.47;;;;;;;;;;5067402;28;20028;-75
2022/05/27 14:01:47;;;;;;;16.38;3.13;;;;;;;;;;5069221;28;20095;-74
2022/05/27 14:04:22;;;;;;;9.88;2.65;;;;;;;;;;5068386;28;20438;-75
2022/05/27 14:06:49;;;;;;;14.52;2.95;;;;;;;;;;5069857;28;20139;-75
2022/05/27 14:09:16;;;;;;;16.70;2.50;;;;;;;;;;5060694;28;20021;-75
2022/05/27 14:11:50;;;;;;;15.82;2.65;;;;;;;;;;5069255;28;20068;-74
2022/05/27 14:14:25;;;;;;;11.25;2.72;;;17.90;99.90;;;;;;5068883;28;20414;-75
2022/05/27 14:16:51;;;;;;;17.83;3.30;;;;;;;;;;5066662;28;20037;-75
2022/05/27 14:19:19;;;;;;;10.45;2.50;;;;;;;;;;5071099;28;20077;-74
2022/05/27 14:24:32;;;;;;;15.25;3.13;;;;;;;;;;5062360;28;20446;-75
2022/05/27 14:26:58;;;;;;;11.85;2.25;;;;;;;;;;5065910;28;20030;-76
2022/05/27 14:29:25;;;;;;;13.93;2.55;;;;;;;;;;5066014;28;20039;-75
2022/05/27 14:32:02;;;;;;;24.48;3.72;;;17.10;99.90;;;;;;5065633;28;20032;-75
2022/05/27 14:34:28;;;;;;;12.90;2.38;;;;;;;;;;5064176;28;20149;-75
2022/05/27 14:37:27;;;;;;;15.82;3.08;;;;;;;;;;5069134;28;20107;-75
2022/05/27 14:40:00;;;;;;;14.68;2.40;;;17.20;99.90;;;;;;5045849;28;20480;-75
2022/05/27 14:42:26;;;;;;;13.02;2.42;;;;;;;;;;5061792;28;20025;-75
2022/05/27 14:44:52;;;;;;;19.33;2.42;;;;;;;;;;5063921;28;20483;-75
2022/05/27 14:47:24;;;;;;;10.65;3.17;;;;;;;;;;5067482;28;20104;-75
2022/05/27 14:49:50;;;;;;;11.68;2.42;;;;;;;;;;5063514;28;20024;-76
2022/05/27 14:52:18;;;;;;;11.93;2.40;;;;;;;;;;5071535;28;20032;-75
2022/05/27 14:54:45;;;;;;;9.60;2.55;;;;;;;;;;5071625;28;20542;-76
2022/05/27 14:57:20;;;;;;;15.68;2.72;;;;;;;;;;5070661;28;20496;-76
2022/05/27 14:59:55;;;;;;;13.25;2.38;;;;;;;;;;5071540;28;20032;-75
2022/05/27 15:02:23;;;;;;;17.38;2.40;;;;;;;;;;5071693;28;20049;-76
2022/05/27 15:05:28;;;;;;;8.80;2.28;;;18.00;99.90;;;;;;5074481;28;20037;-76
2022/05/27 15:07:55;;;;;;;10.73;2.15;;;;;;;;;;5072894;28;20087;-78